Ulusoy 5 — TCUV — position and weather

sailwx.info

Track history (hours):
 
Tides and Currents Weather Stations Pressure Air Temp Water Temp Dewpoint Dewpoint Depression Visibility Wind Speed Wind Dir Waves Ship Positions

Ulusoy 5

Last reported at 2018-Feb-22 10:29 UTC. Time now 2018-Feb-22 10:34 UTC.
Position N 45°24' E 013°28'.

Length 165 m; draft 7.2 m.

Type: Cargo ship. MMSI: 271000426.

Date/timePositionNaut miles runAvg speedWind from/ knotsBaromVisibWave heightAir tempDewpointWater temp
2018-Feb-22 10:29N 45°24' E 013°28'0 0.1
2018-Feb-22 09:50N 45°24' E 013°28'0 0.1
2018-Feb-22 09:29N 45°25' E 013°28'0 0.1
2018-Feb-22 08:59N 45°25' E 013°28'0 0.0
2018-Feb-22 08:29N 45°25' E 013°28'0 0.2
2018-Feb-22 07:56N 45°24' E 013°28'0 0.1
2018-Feb-22 07:26N 45°24' E 013°28'0 0.0
2018-Feb-22 06:56N 45°24' E 013°28'0 0.2
2018-Feb-22 06:25N 45°25' E 013°28'1 3.4
2018-Feb-22 06:00N 45°25' E 013°27'2 4.0
2018-Feb-22 05:30N 45°24' E 013°29'0 0.0
2018-Feb-22 05:00N 45°24' E 013°29'0 0.0
2018-Feb-22 04:30N 45°24' E 013°29'0 0.0
2018-Feb-22 03:57N 45°24' E 013°29'0 0.0
2018-Feb-22 03:30N 45°24' E 013°29'0 0.0
2018-Feb-22 03:00N 45°24' E 013°29'0 0.0
2018-Feb-22 02:30N 45°24' E 013°29'0 0.0
2018-Feb-22 02:00N 45°24' E 013°29'0 0.0
2018-Feb-22 01:24N 45°24' E 013°29'0 0.0
2018-Feb-22 00:54N 45°24' E 013°29'0 0.0
2018-Feb-22 00:30N 45°24' E 013°29'0 0.1
2018-Feb-21 23:54N 45°24' E 013°29'0 0.0
2018-Feb-21 23:30N 45°24' E 013°29'0 0.1
2018-Feb-21 23:00N 45°24' E 013°29'0 0.1
2018-Feb-21 22:30N 45°24' E 013°29'0 0.1
2018-Feb-21 22:00N 45°24' E 013°29'0 0.0
2018-Feb-21 21:27N 45°24' E 013°29'0 0.2
2018-Feb-21 20:54N 45°24' E 013°29'0 0.1
2018-Feb-21 20:30N 45°24' E 013°29'0 0.1
2018-Feb-21 20:00N 45°24' E 013°29'0 0.0
2018-Feb-21 19:30N 45°24' E 013°29'0 0.0
2018-Feb-21 19:00N 45°24' E 013°29'0 0.1
2018-Feb-21 18:30N 45°24' E 013°29'0 0.0
2018-Feb-21 18:00N 45°24' E 013°29'0 0.0
2018-Feb-21 17:30N 45°24' E 013°29'0 0.0
2018-Feb-21 17:00N 45°24' E 013°29'0 0.0
2018-Feb-21 16:30N 45°24' E 013°29'0 0.0
2018-Feb-21 16:00N 45°24' E 013°29'0 0.0
2018-Feb-21 15:30N 45°24' E 013°29'0 0.0
2018-Feb-21 15:00N 45°24' E 013°29'0 0.0
2018-Feb-21 14:27N 45°24' E 013°29'0 0.0
2018-Feb-21 14:00N 45°24' E 013°29'0 0.1
2018-Feb-21 13:30N 45°24' E 013°29'0 0.0
2018-Feb-21 13:00N 45°24' E 013°29'0 0.0
2018-Feb-21 12:30N 45°24' E 013°29'0 0.0
2018-Feb-21 11:58N 45°24' E 013°29'0 0.6
2018-Feb-21 11:30N 45°25' E 013°29'4 8.0
2018-Feb-21 11:00N 45°28' E 013°26'510.2
2018-Feb-21 10:30N 45°33' E 013°25'5 9.3
2018-Feb-21 10:00N 45°37' E 013°29'611.2
2018-Feb-21 09:30N 45°39' E 013°36'2 4.9
2018-Feb-21 09:00N 45°39' E 013°40'4 7.9
2018-Feb-21 08:30N 45°37' E 013°35'612.7
2018-Feb-21 08:00N 45°33' E 013°28'612.5
2018-Feb-21 07:30N 45°29' E 013°21'612.2
2018-Feb-21 07:00N 45°25' E 013°15'611.2
2018-Feb-21 06:30N 45°20' E 013°12'713.9
2018-Feb-21 06:00N 45°13' E 013°15'714.7
2018-Feb-21 05:30N 45°06' E 013°19'714.8
2018-Feb-21 05:00N 44°59' E 013°22'714.6
2018-Feb-21 04:30N 44°52' E 013°26'714.7
2018-Feb-21 04:00N 44°46' E 013°32'36914.4
2018-Feb-20 02:26N 40°03' E 018°52'714.8
2018-Feb-20 02:00N 39°57' E 018°57'31911.8
2018-Feb-18 23:04N 37°15' E 024°48'114.9
2018-Feb-18 23:01N 37°15' E 024°48'815.0
2018-Feb-18 22:30N 37°20' E 024°56'715.0
2018-Feb-18 22:00N 37°24' E 025°04'714.9
2018-Feb-18 21:30N 37°28' E 025°11'714.9
2018-Feb-18 21:00N 37°33' E 025°18'714.7
2018-Feb-18 20:31N 37°38' E 025°25'714.7
2018-Feb-18 20:00N 37°44' E 025°31'714.6
2018-Feb-18 19:31N 37°48' E 025°39'  
Track history (hours):
 
Tides and Currents Weather Stations Pressure Air Temp Water Temp Dewpoint Dewpoint Depression Visibility Wind Speed Wind Dir Waves Ship Positions

Ulusoy 5

Last reported at 2018-Feb-22 10:29 UTC. Time now 2018-Feb-22 10:34 UTC.
Position N 45°24' E 013°28'.

Length 165 m; draft 7.2 m.

Type: Cargo ship. MMSI: 271000426.

Date/timePositionNaut miles runAvg speedWind from/ knotsBaromVisibWave heightAir tempDewpointWater temp
2018-Feb-22 10:29N 45°24' E 013°28'0 0.1
2018-Feb-22 09:50N 45°24' E 013°28'0 0.1
2018-Feb-22 09:29N 45°25' E 013°28'0 0.1
2018-Feb-22 08:59N 45°25' E 013°28'0 0.0
2018-Feb-22 08:29N 45°25' E 013°28'0 0.2
2018-Feb-22 07:56N 45°24' E 013°28'0 0.1
2018-Feb-22 07:26N 45°24' E 013°28'0 0.0
2018-Feb-22 06:56N 45°24' E 013°28'0 0.2
2018-Feb-22 06:25N 45°25' E 013°28'1 3.4
2018-Feb-22 06:00N 45°25' E 013°27'2 4.0
2018-Feb-22 05:30N 45°24' E 013°29'0 0.0
2018-Feb-22 05:00N 45°24' E 013°29'0 0.0
2018-Feb-22 04:30N 45°24' E 013°29'0 0.0
2018-Feb-22 03:57N 45°24' E 013°29'0 0.0
2018-Feb-22 03:30N 45°24' E 013°29'0 0.0
2018-Feb-22 03:00N 45°24' E 013°29'0 0.0
2018-Feb-22 02:30N 45°24' E 013°29'0 0.0
2018-Feb-22 02:00N 45°24' E 013°29'0 0.0
2018-Feb-22 01:24N 45°24' E 013°29'0 0.0
2018-Feb-22 00:54N 45°24' E 013°29'0 0.0
2018-Feb-22 00:30N 45°24' E 013°29'0 0.1
2018-Feb-21 23:54N 45°24' E 013°29'0 0.0
2018-Feb-21 23:30N 45°24' E 013°29'0 0.1
2018-Feb-21 23:00N 45°24' E 013°29'0 0.1
2018-Feb-21 22:30N 45°24' E 013°29'0 0.1
2018-Feb-21 22:00N 45°24' E 013°29'0 0.0
2018-Feb-21 21:27N 45°24' E 013°29'0 0.2
2018-Feb-21 20:54N 45°24' E 013°29'0 0.1
2018-Feb-21 20:30N 45°24' E 013°29'0 0.1
2018-Feb-21 20:00N 45°24' E 013°29'0 0.0
2018-Feb-21 19:30N 45°24' E 013°29'0 0.0
2018-Feb-21 19:00N 45°24' E 013°29'0 0.1
2018-Feb-21 18:30N 45°24' E 013°29'0 0.0
2018-Feb-21 18:00N 45°24' E 013°29'0 0.0
2018-Feb-21 17:30N 45°24' E 013°29'0 0.0
2018-Feb-21 17:00N 45°24' E 013°29'0 0.0
2018-Feb-21 16:30N 45°24' E 013°29'0 0.0
2018-Feb-21 16:00N 45°24' E 013°29'0 0.0
2018-Feb-21 15:30N 45°24' E 013°29'0 0.0
2018-Feb-21 15:00N 45°24' E 013°29'0 0.0
2018-Feb-21 14:27N 45°24' E 013°29'0 0.0
2018-Feb-21 14:00N 45°24' E 013°29'0 0.1
2018-Feb-21 13:30N 45°24' E 013°29'0 0.0
2018-Feb-21 13:00N 45°24' E 013°29'0 0.0
2018-Feb-21 12:30N 45°24' E 013°29'0 0.0
2018-Feb-21 11:58N 45°24' E 013°29'0 0.6
2018-Feb-21 11:30N 45°25' E 013°29'4 8.0
2018-Feb-21 11:00N 45°28' E 013°26'510.2
2018-Feb-21 10:30N 45°33' E 013°25'5 9.3
2018-Feb-21 10:00N 45°37' E 013°29'611.2
2018-Feb-21 09:30N 45°39' E 013°36'2 4.9
2018-Feb-21 09:00N 45°39' E 013°40'4 7.9
2018-Feb-21 08:30N 45°37' E 013°35'612.7
2018-Feb-21 08:00N 45°33' E 013°28'612.5
2018-Feb-21 07:30N 45°29' E 013°21'612.2
2018-Feb-21 07:00N 45°25' E 013°15'611.2
2018-Feb-21 06:30N 45°20' E 013°12'713.9
2018-Feb-21 06:00N 45°13' E 013°15'714.7
2018-Feb-21 05:30N 45°06' E 013°19'714.8
2018-Feb-21 05:00N 44°59' E 013°22'714.6
2018-Feb-21 04:30N 44°52' E 013°26'714.7
2018-Feb-21 04:00N 44°46' E 013°32'36914.4
2018-Feb-20 02:26N 40°03' E 018°52'714.8
2018-Feb-20 02:00N 39°57' E 018°57'31911.8
2018-Feb-18 23:04N 37°15' E 024°48'114.9
2018-Feb-18 23:01N 37°15' E 024°48'815.0
2018-Feb-18 22:30N 37°20' E 024°56'715.0
2018-Feb-18 22:00N 37°24' E 025°04'714.9
2018-Feb-18 21:30N 37°28' E 025°11'714.9
2018-Feb-18 21:00N 37°33' E 025°18'714.7
2018-Feb-18 20:31N 37°38' E 025°25'714.7
2018-Feb-18 20:00N 37°44' E 025°31'714.6
2018-Feb-18 19:31N 37°48' E 025°39'  

Dump ship's entire track history